This is the latest recevied weather packets stored in our database for station/object EA5LU-10. If no packets are shown the sender has not sent any weather packets the latest 10 day(s).
| Time | Temp. | Humidity | Pressure | Rain* | Wind** | Luminosity | Snow |
|---|---|---|---|---|---|---|---|
| 1777943388 | 18.33° C | 69% | 1003 hPa | - | - | - | - |
| 1777942488 | 18.33° C | 67% | 1003 hPa | - | - | - | - |
| 1777941587 | 18.89° C | 67% | 1003.1 hPa | - | - | - | - |
| 1777940686 | 18.89° C | 68% | 1003.2 hPa | - | - | - | - |
| 1777939785 | 18.33° C | 69% | 1003.1 hPa | - | - | - | - |
| 1777938884 | 18.33° C | 71% | 1003.1 hPa | - | - | - | - |
| 1777937984 | 18.33° C | 71% | 1003.3 hPa | - | - | - | - |
| 1777937083 | 17.78° C | 73% | 1003.2 hPa | - | - | - | - |
| 1777936182 | 18.33° C | 72% | 1003.2 hPa | - | - | - | - |
| 1777935281 | 18.33° C | 73% | 1003.2 hPa | - | - | - | - |
| 1777934380 | 18.33° C | 72% | 1003 hPa | - | - | - | - |
| 1777933479 | 18.33° C | 71% | 1003.1 hPa | - | - | - | - |
| 1777932579 | 18.33° C | 71% | 1002.9 hPa | - | - | - | - |
| 1777931678 | 18.89° C | 70% | 1002.9 hPa | - | - | - | - |
| 1777930777 | 20° C | 68% | 1002.7 hPa | - | - | - | - |
| 1777929876 | 20.56° C | 66% | 1002.9 hPa | - | - | - | - |
| 1777928975 | 21.11° C | 66% | 1002.8 hPa | - | - | - | - |
| 1777928074 | 21.11° C | 64% | 1002.7 hPa | - | - | - | - |
| 1777927173 | 21.67° C | 64% | 1002.6 hPa | - | - | - | - |
| 1777926273 | 22.78° C | 61% | 1002.4 hPa | - | - | - | - |
| 1777925372 | 22.22° C | 61% | 1002.1 hPa | - | - | - | - |
| 1777924471 | 22.78° C | 60% | 1002.1 hPa | - | - | - | - |
| 1777923570 | 23.33° C | 60% | 1001.9 hPa | - | - | - | - |
| 1777922669 | 22.78° C | 60% | 1001.7 hPa | - | - | - | - |
| 1777921769 | 23.33° C | 59% | 1001.4 hPa | - | - | - | - |
* Rain since midnight (hover to see other rain measurements)
** Current wind speed in m/s (hover to see current wind gust speed)